EDT,Max TemperatureF,Mean TemperatureF,Min TemperatureF,Max Dew PointF,MeanDew PointF,Min DewpointF,Max Humidity, Mean Humidity, Min Humidity, Max Sea Level PressureIn, Mean Sea Level PressureIn, Min Sea Level PressureIn, Max VisibilityMiles, Mean VisibilityMiles, Min VisibilityMiles, Max Wind SpeedMPH, Mean Wind SpeedMPH, Max Gust SpeedMPH,PrecipitationIn, CloudCover, Events, WindDirDegrees
2013-3-1,41,38,34,27,24,20,64,57,50,29.92,29.84,29.76,10,10,10,20,11,25,0.00,8,,312
2013-3-2,36,33,30,22,19,16,63,57,51,29.92,29.89,29.85,10,10,6,16,10,22,T,8,Snow,320
2013-3-3,40,35,29,19,15,13,63,49,34,29.96,29.89,29.83,10,10,10,23,13,32,0.00,6,,307
2013-3-4,42,34,26,15,13,10,53,41,29,30.05,30.01,29.96,10,10,10,24,12,31,0.00,3,,301
2013-3-5,49,38,27,29,17,9,63,42,21,30.08,29.96,29.82,10,9,1,15,4,22,T,4,Snow,88
2013-3-6,41,37,33,32,30,26,89,72,55,30.05,29.79,29.69,10,4,0,29,15,39,0.43,8,Fog-Rain-Snow,8
2013-3-7,47,42,37,27,26,21,64,53,42,30.20,30.13,30.05,10,10,10,23,12,29,0.00,5,,326
2013-3-8,48,42,36,25,24,22,64,53,42,30.32,30.24,30.18,10,10,10,31,16,37,0.00,4,,320
2013-3-9,60,45,30,24,21,14,64,40,16,30.38,30.32,30.26,10,10,10,12,3,21,0.00,0,,331
2013-3-10,63,45,26,26,23,21,81,51,21,30.31,30.24,30.18,10,10,9,18,6,23,0.00,0,,163
2013-3-11,59,50,40,47,36,21,76,54,31,30.18,30.04,29.85,10,10,10,18,7,26,T,2,,152
2013-3-12,58,49,40,52,42,24,93,72,50,29.99,29.83,29.76,10,8,2,25,12,33,0.54,6,Rain,273
2013-3-13,48,39,30,30,22,16,69,50,31,30.08,29.98,29.92,10,10,2,30,13,36,T,4,Snow,270
2013-3-14,43,37,30,17,13,11,51,40,29,30.16,30.10,30.06,10,10,10,31,16,43,0.00,3,,298
2013-3-15,57,43,28,31,23,16,63,46,28,30.12,29.93,29.79,10,10,10,16,10,21,0.00,1,,255
2013-3-16,51,44,36,36,32,30,85,69,53,29.94,29.78,29.67,10,8,4,17,7,25,T,7,Rain,15
2013-3-17,40,38,35,31,25,20,82,63,44,30.26,30.13,29.95,10,9,6,16,4,20,0.00,8,,5
2013-3-18,36,34,31,31,28,20,92,72,52,30.31,30.13,29.90,10,4,1,10,3,37,0.32,8,Rain-Snow,104
2013-3-19,57,45,32,38,27,8,100,59,17,29.94,29.82,29.73,10,4,0,39,12,49,0.00,3,Fog,264
2013-3-20,51,42,33,27,14,10,70,45,19,29.99,29.90,29.77,10,10,10,29,15,37,0.00,3,,278
2013-3-21,35,30,25,21,10,5,61,45,29,29.91,29.84,29.81,10,10,10,23,12,31,0.00,4,,300
2013-3-22,45,36,27,17,14,10,55,43,30,30.02,29.94,29.90,10,10,10,24,12,30,0.00,3,,287
2013-3-23,53,38,22,21,19,16,74,50,26,30.03,29.99,29.93,10,10,9,18,8,23,0.00,0,,320
2013-3-24,42,34,25,31,25,19,89,65,41,30.01,29.81,29.65,10,6,1,12,2,15,0.05,4,Snow,241
2013-3-25,38,35,32,32,31,30,96,89,82,29.72,29.59,29.53,5,2,0,10,2,12,0.66,8,Fog-Rain-Snow,347
2013-3-26,49,41,33,32,29,24,89,64,39,30.02,29.84,29.71,10,9,2,22,9,28,0.02,6,Snow,307
2013-3-27,48,40,32,27,25,22,70,54,37,30.14,30.08,30.01,10,9,1,26,11,36,0.00,5,,288
2013-3-28,47,41,35,30,28,25,64,57,49,30.25,30.16,30.10,10,10,10,21,9,29,T,7,,291
2013-3-29,56,46,35,30,26,21,82,55,28,30.27,30.22,30.15,10,10,7,16,4,22,0.00,7,,322
2013-3-30,60,43,26,27,21,13,78,47,15,30.25,30.17,30.10,10,10,10,13,2,24,0.00,1,,260
2013-3-31,49,43,36,45,38,23,92,73,54,30.10,29.87,29.75,10,6,2,12,1,41,0.20,6,Rain,149